sensor_id;sensor_type;location;lat;lon;timestamp;pressure;altitude;pressure_sealevel;temperature;humidity
3917;BME280;1973;50.518;7.318;2023-03-20T00:01:57;101204.31;;;11.19;100.00
3917;BME280;1973;50.518;7.318;2023-03-20T00:04:23;101206.22;;;11.19;100.00
3917;BME280;1973;50.518;7.318;2023-03-20T00:06:51;101204.94;;;11.21;100.00
3917;BME280;1973;50.518;7.318;2023-03-20T00:09:17;101207.50;;;11.23;100.00
3917;BME280;1973;50.518;7.318;2023-03-20T00:11:49;101199.00;;;11.24;100.00
3917;BME280;1973;50.518;7.318;2023-03-20T00:14:18;101196.25;;;11.24;100.00
3917;BME280;1973;50.518;7.318;2023-03-20T00:16:48;101204.31;;;11.26;100.00
3917;BME280;1973;50.518;7.318;2023-03-20T00:19:17;101213.22;;;11.28;100.00
3917;BME280;1973;50.518;7.318;2023-03-20T00:21:45;101216.19;;;11.27;100.00
3917;BME280;1973;50.518;7.318;2023-03-20T00:24:14;101214.25;;;11.27;100.00
3917;BME280;1973;50.518;7.318;2023-03-20T00:26:42;101220.63;;;11.28;100.00
3917;BME280;1973;50.518;7.318;2023-03-20T00:29:16;101219.34;;;11.23;100.00
3917;BME280;1973;50.518;7.318;2023-03-20T00:31:44;101219.34;;;11.23;100.00
3917;BME280;1973;50.518;7.318;2023-03-20T00:34:14;101232.06;;;11.24;100.00
3917;BME280;1973;50.518;7.318;2023-03-20T00:36:41;101239.72;;;11.22;100.00
3917;BME280;1973;50.518;7.318;2023-03-20T00:39:08;101235.88;;;11.17;100.00
3917;BME280;1973;50.518;7.318;2023-03-20T00:41:41;101241.19;;;11.12;100.00
3917;BME280;1973;50.518;7.318;2023-03-20T00:44:32;101241.38;;;11.10;100.00
3917;BME280;1973;50.518;7.318;2023-03-20T00:47:02;101246.47;;;11.07;100.00
3917;BME280;1973;50.518;7.318;2023-03-20T00:49:34;101246.47;;;11.07;100.00
3917;BME280;1973;50.518;7.318;2023-03-20T00:52:02;101247.06;;;11.02;100.00
3917;BME280;1973;50.518;7.318;2023-03-20T00:54:29;101253.44;;;11.03;100.00
3917;BME280;1973;50.518;7.318;2023-03-20T00:57:07;101262.97;;;11.00;100.00
3917;BME280;1973;50.518;7.318;2023-03-20T00:59:37;101253.00;;;10.99;100.00
3917;BME280;1973;50.518;7.318;2023-03-20T01:02:05;101251.72;;;10.95;100.00
3917;BME280;1973;50.518;7.318;2023-03-20T01:04:37;101263.41;;;10.97;100.00
3917;BME280;1973;50.518;7.318;2023-03-20T01:07:06;101257.03;;;10.97;100.00
3917;BME280;1973;50.518;7.318;2023-03-20T01:09:32;101265.47;;;10.89;100.00
3917;BME280;1973;50.518;7.318;2023-03-20T01:11:59;101277.34;;;10.89;100.00
3917;BME280;1973;50.518;7.318;2023-03-20T01:14:26;101269.69;;;10.85;100.00
3917;BME280;1973;50.518;7.318;2023-03-20T01:16:53;101272.63;;;10.83;100.00
3917;BME280;1973;50.518;7.318;2023-03-20T01:19:19;101273.28;;;10.79;100.00
3917;BME280;1973;50.518;7.318;2023-03-20T01:21:46;101262.88;;;10.74;100.00
3917;BME280;1973;50.518;7.318;2023-03-20T01:24:12;101283.41;;;10.71;100.00
3917;BME280;1973;50.518;7.318;2023-03-20T01:26:41;101276.41;;;10.69;100.00
3917;BME280;1973;50.518;7.318;2023-03-20T01:29:26;101279.56;;;10.66;100.00
3917;BME280;1973;50.518;7.318;2023-03-20T01:31:54;101287.19;;;10.64;100.00
3917;BME280;1973;50.518;7.318;2023-03-20T01:34:21;101284.44;;;10.64;100.00
3917;BME280;1973;50.518;7.318;2023-03-20T01:36:50;101291.00;;;10.63;100.00
3917;BME280;1973;50.518;7.318;2023-03-20T01:39:17;101291.63;;;10.65;100.00
3917;BME280;1973;50.518;7.318;2023-03-20T01:41:47;101289.53;;;10.67;100.00
3917;BME280;1973;50.518;7.318;2023-03-20T01:44:28;101287.41;;;10.69;100.00
3917;BME280;1973;50.518;7.318;2023-03-20T01:46:55;101286.78;;;10.67;100.00
3917;BME280;1973;50.518;7.318;2023-03-20T01:51:50;101288.69;;;10.66;100.00
3917;BME280;1973;50.518;7.318;2023-03-20T01:54:26;101285.06;;;10.66;100.00
3917;BME280;1973;50.518;7.318;2023-03-20T01:56:59;101282.31;;;10.66;100.00
3917;BME280;1973;50.518;7.318;2023-03-20T01:59:30;101275.75;;;10.67;100.00
3917;BME280;1973;50.518;7.318;2023-03-20T02:01:59;101281.91;;;10.69;100.00
3917;BME280;1973;50.518;7.318;2023-03-20T02:04:29;101275.16;;;10.71;100.00
3917;BME280;1973;50.518;7.318;2023-03-20T02:06:59;101273.22;;;10.72;100.00
3917;BME280;1973;50.518;7.318;2023-03-20T02:12:02;101264.34;;;10.70;100.00
3917;BME280;1973;50.518;7.318;2023-03-20T02:14:30;101260.31;;;10.72;100.00
3917;BME280;1973;50.518;7.318;2023-03-20T02:16:57;101255.66;;;10.73;100.00
3917;BME280;1973;50.518;7.318;2023-03-20T02:25:23;101247.81;;;10.70;100.00
3917;BME280;1973;50.518;7.318;2023-03-20T02:36:05;101236.59;;;10.71;100.00
3917;BME280;1973;50.518;7.318;2023-03-20T02:41:35;101255.03;;;10.71;100.00
3917;BME280;1973;50.518;7.318;2023-03-20T02:44:22;101254.19;;;10.70;100.00
3917;BME280;1973;50.518;7.318;2023-03-20T02:46:59;101261.16;;;10.73;100.00
3917;BME280;1973;50.518;7.318;2023-03-20T02:49:51;101253.94;;;10.72;100.00
3917;BME280;1973;50.518;7.318;2023-03-20T02:52:42;101263.06;;;10.72;100.00
3917;BME280;1973;50.518;7.318;2023-03-20T02:55:43;101277.91;;;10.71;100.00
3917;BME280;1973;50.518;7.318;2023-03-20T02:58:21;101274.06;;;10.66;100.00
3917;BME280;1973;50.518;7.318;2023-03-20T03:00:57;101273.44;;;10.64;100.00
3917;BME280;1973;50.518;7.318;2023-03-20T03:03:32;101268.97;;;10.63;100.00
3917;BME280;1973;50.518;7.318;2023-03-20T03:06:07;101270.44;;;10.59;100.00
3917;BME280;1973;50.518;7.318;2023-03-20T03:08:40;101272.13;;;10.60;100.00
3917;BME280;1973;50.518;7.318;2023-03-20T03:11:08;101256.25;;;10.62;100.00
3917;BME280;1973;50.518;7.318;2023-03-20T03:13:39;101254.16;;;10.64;100.00
3917;BME280;1973;50.518;7.318;2023-03-20T03:16:12;101260.47;;;10.64;100.00
3917;BME280;1973;50.518;7.318;2023-03-20T03:18:41;101267.91;;;10.64;100.00
3917;BME280;1973;50.518;7.318;2023-03-20T03:21:10;101268.56;;;10.66;100.00
3917;BME280;1973;50.518;7.318;2023-03-20T03:23:42;101252.03;;;10.66;100.00
3917;BME280;1973;50.518;7.318;2023-03-20T03:26:18;101248.22;;;10.67;100.00
3917;BME280;1973;50.518;7.318;2023-03-20T03:28:49;101242.06;;;10.65;100.00
3917;BME280;1973;50.518;7.318;2023-03-20T03:31:19;101257.72;;;10.64;100.00
3917;BME280;1973;50.518;7.318;2023-03-20T03:33:49;101273.44;;;10.64;100.00
3917;BME280;1973;50.518;7.318;2023-03-20T03:36:35;101272.75;;;10.62;100.00
3917;BME280;1973;50.518;7.318;2023-03-20T03:41:42;101274.88;;;10.60;100.00
3917;BME280;1973;50.518;7.318;2023-03-20T03:44:24;101279.72;;;10.58;100.00
3917;BME280;1973;50.518;7.318;2023-03-20T03:49:25;101269.56;;;10.58;100.00
3917;BME280;1973;50.518;7.318;2023-03-20T03:51:56;101270.19;;;10.54;100.00
3917;BME280;1973;50.518;7.318;2023-03-20T03:54:42;101274.00;;;10.53;100.00
3917;BME280;1973;50.518;7.318;2023-03-20T03:57:12;101282.25;;;10.53;100.00
3917;BME280;1973;50.518;7.318;2023-03-20T03:59:44;101283.09;;;10.53;100.00
3917;BME280;1973;50.518;7.318;2023-03-20T04:02:13;101287.78;;;10.53;100.00
3917;BME280;1973;50.518;7.318;2023-03-20T04:04:42;101298.78;;;10.53;100.00
3917;BME280;1973;50.518;7.318;2023-03-20T04:07:13;101291.75;;;10.50;100.00
3917;BME280;1973;50.518;7.318;2023-03-20T04:09:39;101284.34;;;10.51;100.00
3917;BME280;1973;50.518;7.318;2023-03-20T04:12:36;101275.06;;;10.52;100.00
3917;BME280;1973;50.518;7.318;2023-03-20T04:15:05;101274.38;;;10.50;100.00
3917;BME280;1973;50.518;7.318;2023-03-20T04:17:32;101281.59;;;10.51;100.00
3917;BME280;1973;50.518;7.318;2023-03-20T04:19:59;101280.56;;;10.52;100.00
3917;BME280;1973;50.518;7.318;2023-03-20T04:22:26;101275.06;;;10.52;100.00
3917;BME280;1973;50.518;7.318;2023-03-20T04:24:52;101277.81;;;10.52;100.00
3917;BME280;1973;50.518;7.318;2023-03-20T04:27:19;101271.63;;;10.50;100.00
3917;BME280;1973;50.518;7.318;2023-03-20T04:29:46;101283.91;;;10.47;100.00
3917;BME280;1973;50.518;7.318;2023-03-20T04:32:13;101280.31;;;10.47;100.00
3917;BME280;1973;50.518;7.318;2023-03-20T04:34:39;101281.34;;;10.46;100.00
3917;BME280;1973;50.518;7.318;2023-03-20T04:37:05;101283.47;;;10.44;100.00
3917;BME280;1973;50.518;7.318;2023-03-20T04:39:34;101294.47;;;10.44;100.00
3917;BME280;1973;50.518;7.318;2023-03-20T04:42:02;101298.50;;;10.41;100.00
3917;BME280;1973;50.518;7.318;2023-03-20T04:44:29;101285.97;;;10.39;100.00
3917;BME280;1973;50.518;7.318;2023-03-20T04:46:56;101284.91;;;10.40;100.00
3917;BME280;1973;50.518;7.318;2023-03-20T04:49:23;101291.47;;;10.39;100.00
3917;BME280;1973;50.518;7.318;2023-03-20T04:51:49;101287.03;;;10.38;100.00
3917;BME280;1973;50.518;7.318;2023-03-20T04:54:16;101294.44;;;10.37;100.00
3917;BME280;1973;50.518;7.318;2023-03-20T04:56:42;101283.63;;;10.36;100.00
3917;BME280;1973;50.518;7.318;2023-03-20T04:59:09;101280.88;;;10.36;100.00
3917;BME280;1973;50.518;7.318;2023-03-20T05:01:35;101288.28;;;10.35;100.00
3917;BME280;1973;50.518;7.318;2023-03-20T05:04:02;101283.00;;;10.34;100.00
3917;BME280;1973;50.518;7.318;2023-03-20T05:06:29;101281.28;;;10.33;100.00
3917;BME280;1973;50.518;7.318;2023-03-20T05:08:57;101281.28;;;10.33;100.00
3917;BME280;1973;50.518;7.318;2023-03-20T05:11:25;101287.81;;;10.32;100.00
3917;BME280;1973;50.518;7.318;2023-03-20T05:13:52;101277.91;;;10.31;100.00
3917;BME280;1973;50.518;7.318;2023-03-20T05:16:18;101279.56;;;10.32;100.00
3917;BME280;1973;50.518;7.318;2023-03-20T05:18:45;101276.19;;;10.30;100.00
3917;BME280;1973;50.518;7.318;2023-03-20T05:21:12;101274.47;;;10.29;100.00
3917;BME280;1973;50.518;7.318;2023-03-20T05:23:38;101279.13;;;10.28;100.00
3917;BME280;1973;50.518;7.318;2023-03-20T05:26:05;101271.09;;;10.27;100.00
3917;BME280;1973;50.518;7.318;2023-03-20T05:28:32;101285.03;;;10.25;100.00
3917;BME280;1973;50.518;7.318;2023-03-20T05:30:59;101274.63;;;10.20;100.00
3917;BME280;1973;50.518;7.318;2023-03-20T05:33:25;101280.53;;;10.17;100.00
3917;BME280;1973;50.518;7.318;2023-03-20T05:35:52;101274.41;;;10.15;100.00
3917;BME280;1973;50.518;7.318;2023-03-20T05:38:18;101276.69;;;10.12;100.00
3917;BME280;1973;50.518;7.318;2023-03-20T05:40:48;101271.38;;;10.10;100.00
3917;BME280;1973;50.518;7.318;2023-03-20T05:43:15;101274.31;;;10.09;100.00
3917;BME280;1973;50.518;7.318;2023-03-20T05:45:42;101263.53;;;10.07;100.00
3917;BME280;1973;50.518;7.318;2023-03-20T05:48:08;101263.25;;;10.02;100.00
3917;BME280;1973;50.518;7.318;2023-03-20T05:50:35;101257.75;;;10.02;100.00
3917;BME280;1973;50.518;7.318;2023-03-20T05:53:01;101258.84;;;10.01;100.00
3917;BME280;1973;50.518;7.318;2023-03-20T05:55:28;101264.53;;;10.00;100.00
3917;BME280;1973;50.518;7.318;2023-03-20T05:57:54;101257.31;;;9.99;100.00
3917;BME280;1973;50.518;7.318;2023-03-20T06:00:21;101267.69;;;9.97;100.00
3917;BME280;1973;50.518;7.318;2023-03-20T06:02:48;101271.06;;;9.99;100.00
3917;BME280;1973;50.518;7.318;2023-03-20T06:05:14;101263.66;;;9.99;100.00
3917;BME280;1973;50.518;7.318;2023-03-20T06:07:42;101267.09;;;10.01;100.00
3917;BME280;1973;50.518;7.318;2023-03-20T06:10:09;101281.47;;;10.03;100.00
3917;BME280;1973;50.518;7.318;2023-03-20T06:12:35;101270.28;;;10.05;100.00
3917;BME280;1973;50.518;7.318;2023-03-20T06:15:02;101282.09;;;10.05;100.00
3917;BME280;1973;50.518;7.318;2023-03-20T06:17:29;101283.19;;;10.04;100.00
3917;BME280;1973;50.518;7.318;2023-03-20T06:19:55;101284.84;;;10.05;100.00
3917;BME280;1973;50.518;7.318;2023-03-20T06:22:22;101289.31;;;10.06;100.00
3917;BME280;1973;50.518;7.318;2023-03-20T06:24:48;101290.81;;;10.09;100.00
3917;BME280;1973;50.518;7.318;2023-03-20T06:27:14;101293.38;;;10.10;100.00
3917;BME280;1973;50.518;7.318;2023-03-20T06:29:41;101289.19;;;10.14;100.00
3917;BME280;1973;50.518;7.318;2023-03-20T06:32:07;101291.34;;;10.19;100.00
3917;BME280;1973;50.518;7.318;2023-03-20T06:34:34;101290.09;;;10.21;100.00
3917;BME280;1973;50.518;7.318;2023-03-20T06:37:01;101296.06;;;10.25;100.00
3917;BME280;1973;50.518;7.318;2023-03-20T06:39:27;101299.06;;;10.30;100.00
3917;BME280;1973;50.518;7.318;2023-03-20T06:41:54;101303.50;;;10.31;100.00
3917;BME280;1973;50.518;7.318;2023-03-20T06:44:20;101302.44;;;10.32;100.00
3917;BME280;1973;50.518;7.318;2023-03-20T06:46:46;101305.00;;;10.34;100.00
3917;BME280;1973;50.518;7.318;2023-03-20T06:49:13;101310.28;;;10.35;100.00
3917;BME280;1973;50.518;7.318;2023-03-20T06:51:40;101308.41;;;10.36;100.00
3917;BME280;1973;50.518;7.318;2023-03-20T06:54:07;101309.25;;;10.36;100.00
3917;BME280;1973;50.518;7.318;2023-03-20T06:56:33;101296.59;;;10.42;100.00
3917;BME280;1973;50.518;7.318;2023-03-20T06:59:00;101301.69;;;10.45;100.00
3917;BME280;1973;50.518;7.318;2023-03-20T07:01:26;101295.97;;;10.46;100.00
3917;BME280;1973;50.518;7.318;2023-03-20T07:03:53;101292.34;;;10.46;100.00
3917;BME280;1973;50.518;7.318;2023-03-20T07:06:20;101303.00;;;10.49;100.00
3917;BME280;1973;50.518;7.318;2023-03-20T07:08:46;101297.94;;;10.52;100.00
3917;BME280;1973;50.518;7.318;2023-03-20T07:11:13;101300.72;;;10.59;100.00
3917;BME280;1973;50.518;7.318;2023-03-20T07:13:39;101303.50;;;10.65;100.00
3917;BME280;1973;50.518;7.318;2023-03-20T07:16:07;101305.22;;;10.73;100.00
3917;BME280;1973;50.518;7.318;2023-03-20T07:18:34;101301.00;;;10.77;100.00
3917;BME280;1973;50.518;7.318;2023-03-20T07:21:03;101301.47;;;10.81;100.00
3917;BME280;1973;50.518;7.318;2023-03-20T07:23:31;101309.09;;;10.85;100.00
3917;BME280;1973;50.518;7.318;2023-03-20T07:25:59;101303.00;;;10.90;100.00
3917;BME280;1973;50.518;7.318;2023-03-20T07:28:26;101300.00;;;10.91;100.00
3917;BME280;1973;50.518;7.318;2023-03-20T07:30:53;101301.53;;;10.94;100.00
3917;BME280;1973;50.518;7.318;2023-03-20T07:33:19;101313.00;;;10.97;100.00
3917;BME280;1973;50.518;7.318;2023-03-20T07:35:51;101312.34;;;11.02;100.00
3917;BME280;1973;50.518;7.318;2023-03-20T07:38:17;101315.53;;;11.05;100.00
3917;BME280;1973;50.518;7.318;2023-03-20T07:40:44;101314.06;;;11.09;100.00
3917;BME280;1973;50.518;7.318;2023-03-20T07:43:10;101311.56;;;11.14;100.00
3917;BME280;1973;50.518;7.318;2023-03-20T07:45:36;101307.34;;;11.18;100.00
3917;BME280;1973;50.518;7.318;2023-03-20T07:48:03;101313.47;;;11.20;100.00
3917;BME280;1973;50.518;7.318;2023-03-20T07:50:30;101316.03;;;11.22;100.00
3917;BME280;1973;50.518;7.318;2023-03-20T07:52:56;101316.25;;;11.27;100.00
3917;BME280;1973;50.518;7.318;2023-03-20T07:55:23;101315.22;;;11.35;100.00
3917;BME280;1973;50.518;7.318;2023-03-20T07:57:50;101322.25;;;11.44;100.00
3917;BME280;1973;50.518;7.318;2023-03-20T08:00:17;101326.09;;;11.56;100.00
3917;BME280;1973;50.518;7.318;2023-03-20T08:02:44;101324.63;;;11.66;100.00
3917;BME280;1973;50.518;7.318;2023-03-20T08:05:11;101340.78;;;11.76;100.00
3917;BME280;1973;50.518;7.318;2023-03-20T08:07:37;101347.38;;;11.88;100.00
3917;BME280;1973;50.518;7.318;2023-03-20T08:10:04;101348.88;;;11.97;100.00
3917;BME280;1973;50.518;7.318;2023-03-20T08:12:31;101344.00;;;11.99;100.00
3917;BME280;1973;50.518;7.318;2023-03-20T08:14:57;101354.84;;;12.07;100.00
3917;BME280;1973;50.518;7.318;2023-03-20T08:17:24;101349.31;;;12.07;100.00
3917;BME280;1973;50.518;7.318;2023-03-20T08:19:51;101353.56;;;12.10;100.00
3917;BME280;1973;50.518;7.318;2023-03-20T08:22:17;101345.94;;;12.12;100.00
3917;BME280;1973;50.518;7.318;2023-03-20T08:24:44;101354.63;;;12.15;100.00
3917;BME280;1973;50.518;7.318;2023-03-20T08:27:10;101349.72;;;12.17;100.00
3917;BME280;1973;50.518;7.318;2023-03-20T08:29:37;101349.31;;;12.20;100.00
3917;BME280;1973;50.518;7.318;2023-03-20T08:32:04;101352.31;;;12.19;100.00
3917;BME280;1973;50.518;7.318;2023-03-20T08:34:31;101356.53;;;12.22;100.00
3917;BME280;1973;50.518;7.318;2023-03-20T08:36:58;101360.59;;;12.19;100.00
3917;BME280;1973;50.518;7.318;2023-03-20T08:39:25;101353.34;;;12.18;100.00
3917;BME280;1973;50.518;7.318;2023-03-20T08:41:51;101359.94;;;12.17;100.00
3917;BME280;1973;50.518;7.318;2023-03-20T08:44:18;101380.97;;;12.11;100.00
3917;BME280;1973;50.518;7.318;2023-03-20T08:46:44;101373.06;;;12.08;100.00
3917;BME280;1973;50.518;7.318;2023-03-20T08:49:12;101376.50;;;12.04;100.00
3917;BME280;1973;50.518;7.318;2023-03-20T08:51:39;101377.75;;;12.01;100.00
3917;BME280;1973;50.518;7.318;2023-03-20T08:54:06;101385.81;;;11.96;100.00
3917;BME280;1973;50.518;7.318;2023-03-20T08:56:32;101381.34;;;11.95;100.00
3917;BME280;1973;50.518;7.318;2023-03-20T08:58:59;101382.41;;;11.94;100.00
3917;BME280;1973;50.518;7.318;2023-03-20T09:01:25;101380.06;;;11.91;100.00
3917;BME280;1973;50.518;7.318;2023-03-20T09:04:07;101382.84;;;11.91;100.00
3917;BME280;1973;50.518;7.318;2023-03-20T09:06:37;101376.88;;;11.81;100.00
3917;BME280;1973;50.518;7.318;2023-03-20T09:09:04;101382.16;;;11.76;100.00
3917;BME280;1973;50.518;7.318;2023-03-20T09:11:31;101372.59;;;11.72;100.00
3917;BME280;1973;50.518;7.318;2023-03-20T09:13:58;101387.03;;;11.67;100.00
3917;BME280;1973;50.518;7.318;2023-03-20T09:16:25;101386.16;;;11.67;100.00
3917;BME280;1973;50.518;7.318;2023-03-20T09:18:52;101391.00;;;11.65;100.00
3917;BME280;1973;50.518;7.318;2023-03-20T09:21:19;101373.84;;;11.63;100.00
3917;BME280;1973;50.518;7.318;2023-03-20T09:23:45;101379.84;;;11.73;100.00
3917;BME280;1973;50.518;7.318;2023-03-20T09:26:12;101376.22;;;11.79;100.00
3917;BME280;1973;50.518;7.318;2023-03-20T09:28:38;101382.22;;;11.89;100.00
3917;BME280;1973;50.518;7.318;2023-03-20T09:31:05;101382.84;;;11.91;100.00
3917;BME280;1973;50.518;7.318;2023-03-20T09:33:32;101387.94;;;11.94;100.00
3917;BME280;1973;50.518;7.318;2023-03-20T09:35:58;101391.34;;;11.96;100.00
3917;BME280;1973;50.518;7.318;2023-03-20T09:38:25;101386.88;;;11.95;100.00
3917;BME280;1973;50.518;7.318;2023-03-20T09:40:59;101393.06;;;12.04;100.00
3917;BME280;1973;50.518;7.318;2023-03-20T09:43:53;101383.50;;;12.06;100.00
3917;BME280;1973;50.518;7.318;2023-03-20T09:52:23;101395.59;;;12.38;100.00
3917;BME280;1973;50.518;7.318;2023-03-20T09:55:19;101397.72;;;12.49;100.00
3917;BME280;1973;50.518;7.318;2023-03-20T09:57:57;101390.50;;;12.61;100.00
3917;BME280;1973;50.518;7.318;2023-03-20T10:00:30;101389.63;;;12.67;100.00
3917;BME280;1973;50.518;7.318;2023-03-20T10:03:03;101396.00;;;12.81;100.00
3917;BME280;1973;50.518;7.318;2023-03-20T10:05:37;101381.31;;;12.87;100.00
3917;BME280;1973;50.518;7.318;2023-03-20T10:08:13;101383.84;;;12.95;100.00
3917;BME280;1973;50.518;7.318;2023-03-20T10:10:55;101377.22;;;13.03;100.00
3917;BME280;1973;50.518;7.318;2023-03-20T10:18:54;101364.94;;;12.92;92.94
3917;BME280;1973;50.518;7.318;2023-03-20T10:21:41;101362.75;;;13.07;94.02
3917;BME280;1973;50.518;7.318;2023-03-20T10:24:19;101360.66;;;12.96;88.78
3917;BME280;1973;50.518;7.318;2023-03-20T10:26:51;101357.66;;;12.98;93.22
3917;BME280;1973;50.518;7.318;2023-03-20T10:29:32;101366.00;;;12.85;90.32
3917;BME280;1973;50.518;7.318;2023-03-20T10:32:26;101371.06;;;13.07;89.48
3917;BME280;1973;50.518;7.318;2023-03-20T10:35:12;101373.78;;;13.21;87.33
3917;BME280;1973;50.518;7.318;2023-03-20T10:40:33;101368.66;;;13.24;88.94
3917;BME280;1973;50.518;7.318;2023-03-20T10:43:10;101369.94;;;13.28;84.28
3917;BME280;1973;50.518;7.318;2023-03-20T10:45:43;101352.63;;;13.39;87.17
3917;BME280;1973;50.518;7.318;2023-03-20T10:48:31;101368.59;;;13.44;74.58
3917;BME280;1973;50.518;7.318;2023-03-20T10:51:01;101350.22;;;13.49;81.96
3917;BME280;1973;50.518;7.318;2023-03-20T10:53:38;101349.84;;;13.46;74.96
3917;BME280;1973;50.518;7.318;2023-03-20T10:56:14;101362.03;;;13.32;70.06
3917;BME280;1973;50.518;7.318;2023-03-20T10:58:45;101348.22;;;13.32;76.64
3917;BME280;1973;50.518;7.318;2023-03-20T11:01:13;101355.88;;;13.30;75.21
3917;BME280;1973;50.518;7.318;2023-03-20T11:03:39;101354.88;;;13.18;75.63
3917;BME280;1973;50.518;7.318;2023-03-20T11:06:17;101346.94;;;13.28;73.08
3917;BME280;1973;50.518;7.318;2023-03-20T11:08:49;101352.69;;;13.33;71.88
3917;BME280;1973;50.518;7.318;2023-03-20T11:11:21;101343.69;;;13.44;69.08
3917;BME280;1973;50.518;7.318;2023-03-20T11:13:48;101351.97;;;13.44;68.60
3917;BME280;1973;50.518;7.318;2023-03-20T11:16:19;101341.53;;;13.52;65.83
3917;BME280;1973;50.518;7.318;2023-03-20T11:18:47;101341.06;;;13.55;66.90
3917;BME280;1973;50.518;7.318;2023-03-20T11:21:26;101345.50;;;13.56;58.96
3917;BME280;1973;50.518;7.318;2023-03-20T11:23:53;101331.03;;;13.61;66.01
3917;BME280;1973;50.518;7.318;2023-03-20T11:26:36;101341.22;;;13.60;59.26
3917;BME280;1973;50.518;7.318;2023-03-20T11:29:14;101338.25;;;13.62;63.54
3917;BME280;1973;50.518;7.318;2023-03-20T11:31:42;101336.56;;;13.61;64.96
3917;BME280;1973;50.518;7.318;2023-03-20T11:36:52;101341.03;;;13.62;59.47
3917;BME280;1973;50.518;7.318;2023-03-20T11:39:35;101334.69;;;13.55;61.53
3917;BME280;1973;50.518;7.318;2023-03-20T11:42:18;101332.78;;;13.55;60.52
3917;BME280;1973;50.518;7.318;2023-03-20T11:44:55;101328.50;;;13.53;56.19
3917;BME280;1973;50.518;7.318;2023-03-20T11:47:25;101335.38;;;13.44;59.41
3917;BME280;1973;50.518;7.318;2023-03-20T11:49:58;101340.69;;;13.45;57.52
3917;BME280;1973;50.518;7.318;2023-03-20T11:52:30;101330.31;;;13.41;56.38
3917;BME280;1973;50.518;7.318;2023-03-20T11:55:00;101334.63;;;13.30;56.23
3917;BME280;1973;50.518;7.318;2023-03-20T11:57:37;101333.13;;;13.28;54.16
3917;BME280;1973;50.518;7.318;2023-03-20T12:00:20;101324.69;;;13.09;51.85
3917;BME280;1973;50.518;7.318;2023-03-20T12:02:49;101328.78;;;12.87;55.50
3917;BME280;1973;50.518;7.318;2023-03-20T12:05:26;101325.44;;;12.72;54.60
3917;BME280;1973;50.518;7.318;2023-03-20T12:07:57;101321.16;;;12.76;55.94
3917;BME280;1973;50.518;7.318;2023-03-20T12:10:30;101319.22;;;12.83;57.45
3917;BME280;1973;50.518;7.318;2023-03-20T12:13:02;101318.22;;;12.78;55.76
3917;BME280;1973;50.518;7.318;2023-03-20T12:15:33;101306.72;;;12.81;57.43
3917;BME280;1973;50.518;7.318;2023-03-20T12:18:36;101310.50;;;12.86;54.52
3917;BME280;1973;50.518;7.318;2023-03-20T12:21:15;101301.16;;;12.87;55.23
3917;BME280;1973;50.518;7.318;2023-03-20T12:23:58;101302.88;;;12.88;54.57
3917;BME280;1973;50.518;7.318;2023-03-20T12:26:53;101312.63;;;12.91;55.18
3917;BME280;1973;50.518;7.318;2023-03-20T12:29:31;101298.38;;;12.87;55.56
3917;BME280;1973;50.518;7.318;2023-03-20T12:32:05;101301.38;;;12.79;57.20
3917;BME280;1973;50.518;7.318;2023-03-20T12:35:10;101292.69;;;12.76;55.47
3917;BME280;1973;50.518;7.318;2023-03-20T12:37:31;101295.69;;;12.74;57.36
3917;BME280;1973;50.518;7.318;2023-03-20T12:40:00;101293.53;;;12.76;57.39
3917;BME280;1973;50.518;7.318;2023-03-20T12:45:33;101292.25;;;12.85;55.66
3917;BME280;1973;50.518;7.318;2023-03-20T12:54:24;101278.59;;;12.97;55.31
3917;BME280;1973;50.518;7.318;2023-03-20T12:57:07;101281.13;;;12.98;55.67
3917;BME280;1973;50.518;7.318;2023-03-20T13:05:07;101260.47;;;13.14;56.16
3917;BME280;1973;50.518;7.318;2023-03-20T13:08:12;101254.88;;;13.21;55.42
3917;BME280;1973;50.518;7.318;2023-03-20T13:10:53;101244.47;;;13.16;55.17
3917;BME280;1973;50.518;7.318;2023-03-20T13:13:37;101247.94;;;13.11;55.79
3917;BME280;1973;50.518;7.318;2023-03-20T13:19:25;101240.16;;;13.27;56.45
3917;BME280;1973;50.518;7.318;2023-03-20T13:21:57;101243.56;;;13.29;57.18
3917;BME280;1973;50.518;7.318;2023-03-20T13:24:38;101234.16;;;13.36;56.21
3917;BME280;1973;50.518;7.318;2023-03-20T13:27:08;101230.28;;;13.44;56.82
3917;BME280;1973;50.518;7.318;2023-03-20T13:29:43;101234.09;;;13.43;56.22
3917;BME280;1973;50.518;7.318;2023-03-20T13:32:21;101229.88;;;13.40;56.39
3917;BME280;1973;50.518;7.318;2023-03-20T13:37:51;101238.53;;;12.75;58.21
3917;BME280;1973;50.518;7.318;2023-03-20T13:40:26;101245.03;;;12.87;58.34
3917;BME280;1973;50.518;7.318;2023-03-20T13:43:19;101243.38;;;12.79;57.79
3917;BME280;1973;50.518;7.318;2023-03-20T13:48:40;101240.81;;;12.84;61.00
3917;BME280;1973;50.518;7.318;2023-03-20T13:56:47;101246.09;;;12.92;60.41
3917;BME280;1973;50.518;7.318;2023-03-20T13:59:36;101241.69;;;12.72;63.29
3917;BME280;1973;50.518;7.318;2023-03-20T14:02:22;101250.91;;;12.59;64.72
3917;BME280;1973;50.518;7.318;2023-03-20T14:04:53;101236.19;;;12.65;63.63
3917;BME280;1973;50.518;7.318;2023-03-20T14:07:36;101241.13;;;12.63;63.56
3917;BME280;1973;50.518;7.318;2023-03-20T14:15:18;101235.34;;;12.64;63.55
3917;BME280;1973;50.518;7.318;2023-03-20T14:17:46;101228.69;;;12.79;63.33
3917;BME280;1973;50.518;7.318;2023-03-20T14:21:02;101222.69;;;12.95;63.34
3917;BME280;1973;50.518;7.318;2023-03-20T14:23:38;101227.59;;;12.86;63.14
3917;BME280;1973;50.518;7.318;2023-03-20T14:26:15;101234.44;;;12.84;63.45
3917;BME280;1973;50.518;7.318;2023-03-20T14:31:39;101227.94;;;13.09;62.59
3917;BME280;1973;50.518;7.318;2023-03-20T14:36:59;101227.56;;;12.99;61.95
3917;BME280;1973;50.518;7.318;2023-03-20T14:42:36;101214.03;;;12.85;64.97
3917;BME280;1973;50.518;7.318;2023-03-20T14:48:05;101224.66;;;12.81;65.48
3917;BME280;1973;50.518;7.318;2023-03-20T14:53:22;101217.88;;;12.77;64.86
3917;BME280;1973;50.518;7.318;2023-03-20T14:55:57;101214.44;;;12.88;65.22
3917;BME280;1973;50.518;7.318;2023-03-20T15:03:58;101213.44;;;12.69;66.48